Time;durP1;ratioP1;P1;durP2;ratioP2;P2;SDS_P1;SDS_P2;PMS_P1;PMS_P2;Temp;Humidity;BMP_temperature;BMP_pressure;BME280_temperature;BME280_humidity;BME280_pressure;Samples;Min_cycle;Max_cycle;Signal;HPM_P1;HPM_P2
2020/12/24 00:01:30;;;;;;;28.20;16.33;;;;;;;1.22;85.32;99620.52;124090;1149;23325;-60
2020/12/24 00:03:57;;;;;;;25.75;12.95;;;;;;;1.26;85.19;99623.66;124184;1149;22697;-60
2020/12/24 00:06:24;;;;;;;25.83;15.60;;;;;;;1.27;85.24;99620.78;121621;1148;24867;-57
2020/12/24 00:08:52;;;;;;;26.35;15.00;;;;;;;1.28;84.96;99626.98;119512;1150;22947;-57
2020/12/24 00:11:20;;;;;;;28.77;15.80;;;;;;;1.29;85.61;99624.10;124138;1148;22801;-57
2020/12/24 00:13:47;;;;;;;39.70;17.67;;;;;;;1.31;86.11;99621.19;124262;1148;22668;-57
2020/12/24 00:16:14;;;;;;;30.50;15.73;;;;;;;1.28;86.04;99616.23;124095;1149;22830;-57
2020/12/24 00:18:42;;;;;;;31.87;17.87;;;;;;;1.26;85.22;99615.60;124265;1148;23473;-57
2020/12/24 00:21:09;;;;;;;29.45;17.25;;;;;;;1.26;85.33;99610.23;124119;1149;22719;-57
2020/12/24 00:23:37;;;;;;;35.43;21.63;;;;;;;1.24;85.11;99605.06;124290;1148;22760;-58
2020/12/24 00:26:05;;;;;;;40.25;19.90;;;;;;;1.24;85.25;99602.38;124136;1148;22767;-57
2020/12/24 00:28:32;;;;;;;56.30;28.30;;;;;;;1.22;85.41;99607.11;124238;1148;22764;-58
2020/12/24 00:31:00;;;;;;;46.20;22.87;;;;;;;1.24;85.71;99602.38;124094;1149;23473;-57
2020/12/24 00:33:27;;;;;;;35.55;19.75;;;;;;;1.23;84.79;99606.08;124261;1148;22720;-57
2020/12/24 00:35:55;;;;;;;29.80;16.25;;;;;;;1.24;85.81;99605.06;122705;1148;23126;-57
2020/12/24 00:38:22;;;;;;;33.30;18.07;;;;;;;1.23;86.07;99603.40;124225;1148;22804;-57
2020/12/24 00:40:50;;;;;;;31.15;16.15;;;;;;;1.26;85.80;99607.55;124223;1149;22744;-57
2020/12/24 00:43:17;;;;;;;27.97;16.00;;;;;;;1.25;85.43;99609.41;124103;1148;23258;-57
2020/12/24 00:45:44;;;;;;;30.10;16.03;;;;;;;1.26;85.77;99610.23;124211;1148;23674;-57
2020/12/24 00:48:12;;;;;;;33.75;16.15;;;;;;;1.25;85.12;99612.09;124020;1149;22778;-57
2020/12/24 00:50:44;;;;;;;29.05;15.55;;;;;;;1.26;85.70;99610.23;124199;1148;22816;-56
2020/12/24 00:53:11;;;;;;;26.07;14.83;;;;;;;1.24;85.57;99613.11;124050;1148;23514;-57
2020/12/24 00:55:39;;;;;;;29.33;16.30;;;;;;;1.26;86.00;99623.66;124221;1149;22699;-57
2020/12/24 00:58:06;;;;;;;26.10;13.80;;;;;;;1.27;86.06;99610.05;123995;1149;23329;-57
2020/12/24 01:00:35;;;;;;;26.37;13.63;;;;;;;1.31;85.01;99615.83;124197;1149;22678;-57
2020/12/24 01:03:02;;;;;;;25.27;14.03;;;;;;;1.31;85.39;99618.51;124071;1149;23376;-57
2020/12/24 01:05:31;;;;;;;26.15;14.65;;;;;;;1.32;86.11;99625.53;124231;1148;22690;-57
2020/12/24 01:07:58;;;;;;;27.20;14.50;;;;;;;1.33;85.13;99619.14;123949;1149;22707;-57
2020/12/24 01:10:26;;;;;;;25.25;14.10;;;;;;;1.33;86.12;99611.09;124212;1149;22673;-57
2020/12/24 01:12:53;;;;;;;28.17;14.70;;;;;;;1.32;85.70;99617.48;124087;1149;23327;-57
2020/12/24 01:15:20;;;;;;;29.13;14.33;;;;;;;1.32;86.23;99617.48;124158;1149;22717;-57
2020/12/24 01:17:48;;;;;;;24.20;12.73;;;;;;;1.32;85.83;99623.69;124062;1149;22810;-57
2020/12/24 01:20:16;;;;;;;25.90;13.23;;;;;;;1.32;85.64;99622.85;124107;1149;22713;-57
2020/12/24 01:22:43;;;;;;;26.80;13.20;;;;;;;1.31;85.16;99627.39;124020;1149;23686;-57
2020/12/24 01:25:11;;;;;;;26.90;14.00;;;;;;;1.32;85.49;99628.22;124230;1149;22683;-57
2020/12/24 01:27:39;;;;;;;26.30;13.53;;;;;;;1.32;85.17;99620.17;124325;1149;22699;-57
2020/12/24 01:30:07;;;;;;;28.50;15.13;;;;;;;1.35;85.73;99627.84;124104;1149;22707;-57
2020/12/24 01:32:35;;;;;;;25.63;13.93;;;;;;;1.36;85.24;99632.18;124307;1148;23547;-57
2020/12/24 01:35:02;;;;;;;24.83;13.30;;;;;;;1.36;85.47;99624.12;124010;1148;22740;-57
2020/12/24 01:37:30;;;;;;;23.85;13.80;;;;;;;1.37;85.62;99626.63;119678;1149;23059;-56
2020/12/24 01:39:58;;;;;;;24.47;13.40;;;;;;;1.36;85.44;99616.91;124176;1148;22691;-57
2020/12/24 01:42:26;;;;;;;24.20;13.80;;;;;;;1.34;85.49;99612.75;124154;1149;22684;-57
2020/12/24 01:44:56;;;;;;;26.25;14.05;;;;;;;1.33;86.01;99616.46;123992;1148;22702;-57
2020/12/24 01:47:24;;;;;;;23.70;12.95;;;;;;;1.32;85.82;99623.69;124170;1148;22814;-57
2020/12/24 01:49:51;;;;;;;23.77;12.17;;;;;;;1.32;85.63;99618.31;124086;1149;23604;-57
2020/12/24 01:52:34;;;;;;;28.10;13.80;;;;;;;1.33;84.86;99616.46;124264;1148;22717;-57
2020/12/24 01:55:05;;;;;;;27.50;13.40;;;;;;;1.32;85.23;99609.44;123988;1150;22721;-57
2020/12/24 01:57:33;;;;;;;24.33;12.07;;;;;;;1.30;84.80;99608.83;124285;1148;22761;-57
2020/12/24 02:00:08;;;;;;;23.63;12.40;;;;;;;1.31;84.90;99616.66;124094;1149;22806;-57
2020/12/24 02:02:38;;;;;;;23.90;12.83;;;;;;;1.32;85.54;99615.62;124225;1148;22703;-57
2020/12/24 02:05:05;;;;;;;24.23;13.53;;;;;;;1.32;85.99;99606.75;124074;1148;22794;-57
2020/12/24 02:07:33;;;;;;;25.40;13.35;;;;;;;1.30;85.42;99609.63;124164;1148;23600;-58
2020/12/24 02:10:01;;;;;;;27.10;13.90;;;;;;;1.28;85.13;99609.02;124147;1149;22779;-57
2020/12/24 02:12:28;;;;;;;27.87;15.03;;;;;;;1.27;86.00;99603.84;124342;1148;22781;-57
2020/12/24 02:14:56;;;;;;;24.73;13.83;;;;;;;1.26;85.35;99611.06;124040;1149;22685;-57
2020/12/24 02:17:23;;;;;;;23.90;12.93;;;;;;;1.26;85.32;99604.87;124243;1149;22708;-67
2020/12/24 02:19:50;;;;;;;25.93;14.17;;;;;;;1.27;85.19;99601.16;124013;1149;22703;-70
2020/12/24 02:22:18;;;;;;;25.67;14.57;;;;;;;1.27;85.46;99607.36;124146;1149;22683;-69
2020/12/24 02:24:46;;;;;;;28.10;14.13;;;;;;;1.28;86.33;99608.19;124219;1149;23496;-69
2020/12/24 02:27:13;;;;;;;26.37;14.20;;;;;;;1.29;85.83;99608.00;124057;1149;22710;-69
2020/12/24 02:29:41;;;;;;;27.10;14.35;;;;;;;1.28;86.19;99594.77;124170;1149;23618;-69
2020/12/24 02:32:08;;;;;;;26.60;14.63;;;;;;;1.28;86.26;99590.23;124102;1149;23516;-69
2020/12/24 02:34:36;;;;;;;32.10;15.70;;;;;;;1.30;85.92;99592.72;124264;1148;22698;-69
2020/12/24 02:37:03;;;;;;;28.87;14.80;;;;;;;1.30;86.09;99598.09;124033;1148;22692;-70
2020/12/24 02:39:31;;;;;;;23.47;12.87;;;;;;;1.28;86.20;99595.60;124229;1148;22685;-69
2020/12/24 02:41:58;;;;;;;23.47;13.37;;;;;;;1.30;85.58;99604.26;124102;1148;23521;-69
2020/12/24 02:44:26;;;;;;;27.75;14.35;;;;;;;1.31;85.71;99603.23;124208;1149;23520;-69
2020/12/24 02:46:53;;;;;;;23.65;13.15;;;;;;;1.31;85.46;99595.19;124041;1148;23574;-64
2020/12/24 02:49:20;;;;;;;24.15;12.95;;;;;;;1.31;86.10;99597.87;124246;1148;22771;-64
2020/12/24 02:51:48;;;;;;;24.93;11.97;;;;;;;1.31;85.75;99600.55;124035;1149;23517;-64
2020/12/24 02:54:15;;;;;;;23.30;13.10;;;;;;;1.30;86.38;99598.89;124237;1148;23290;-64
2020/12/24 02:56:42;;;;;;;24.73;13.77;;;;;;;1.32;85.53;99606.75;124073;1149;22713;-64
2020/12/24 02:59:10;;;;;;;23.33;13.47;;;;;;;1.33;86.44;99603.04;124250;1149;22692;-64
2020/12/24 03:01:37;;;;;;;25.45;13.80;;;;;;;1.32;85.86;99601.38;124197;1148;24694;-64
2020/12/24 03:04:04;;;;;;;25.35;13.70;;;;;;;1.33;85.54;99613.78;124249;1148;22708;-64
2020/12/24 03:06:32;;;;;;;26.30;14.80;;;;;;;1.32;85.98;99610.27;124127;1148;23255;-64
2020/12/24 03:09:00;;;;;;;25.50;13.53;;;;;;;1.31;85.14;99611.28;124120;1149;22855;-64
2020/12/24 03:11:28;;;;;;;26.23;13.17;;;;;;;1.31;85.14;99607.77;124192;1148;22753;-64
2020/12/24 03:13:56;;;;;;;25.23;13.10;;;;;;;1.32;85.53;99602.21;123977;1149;22695;-64
2020/12/24 03:16:39;;;;;;;23.93;12.43;;;;;;;1.32;85.35;99596.02;124272;1149;22708;-64
2020/12/24 03:19:06;;;;;;;22.00;12.17;;;;;;;1.30;85.69;99595.41;124106;1148;22717;-64
2020/12/24 03:23:36;;;;;;;25.30;12.30;;;;;;;1.30;86.01;99592.72;120136;1147;28173;-62
2020/12/24 03:26:04;;;;;;;25.90;12.77;;;;;;;1.29;85.22;99596.44;124292;1146;22839;-63
2020/12/24 03:28:32;;;;;;;23.15;12.50;;;;;;;1.27;85.77;99587.73;124296;1147;22636;-63
2020/12/24 03:30:59;;;;;;;22.05;12.60;;;;;;;1.26;86.30;99580.72;124429;1148;22774;-64
2020/12/24 03:33:26;;;;;;;24.75;14.20;;;;;;;1.25;85.70;99579.05;124251;1147;22698;-63
2020/12/24 03:35:54;;;;;;;22.70;11.95;;;;;;;1.23;85.72;99581.10;124470;1146;22778;-63
2020/12/24 03:38:22;;;;;;;19.80;11.43;;;;;;;1.25;86.43;99584.42;124238;1148;23674;-63
2020/12/24 03:40:49;;;;;;;21.13;12.43;;;;;;;1.24;85.97;99577.39;124251;1147;23444;-64
2020/12/24 03:43:16;;;;;;;22.57;11.87;;;;;;;1.25;86.41;99573.69;124164;1146;22887;-64
2020/12/24 03:45:44;;;;;;;22.60;13.13;;;;;;;1.27;85.97;99577.01;124407;1147;23511;-64
2020/12/24 03:48:11;;;;;;;24.80;13.75;;;;;;;1.27;86.10;99556.37;124321;1146;22737;-63
2020/12/24 03:50:38;;;;;;;23.35;12.55;;;;;;;1.27;86.32;99556.37;124434;1148;22716;-64
2020/12/24 03:53:06;;;;;;;24.37;13.90;;;;;;;1.27;85.82;99566.27;124303;1147;22717;-64
2020/12/24 03:55:34;;;;;;;19.50;11.20;;;;;;;1.28;86.52;99562.56;124212;1146;22710;-64
2020/12/24 03:58:01;;;;;;;23.45;12.80;;;;;;;1.28;86.05;99557.20;124344;1148;23615;-63
2020/12/24 04:00:28;;;;;;;23.67;11.90;;;;;;;1.26;85.57;99556.56;124322;1148;22716;-63
2020/12/24 04:02:56;;;;;;;20.90;11.65;;;;;;;1.25;86.34;99552.22;124360;1146;22721;-63
2020/12/24 04:05:24;;;;;;;19.37;10.83;;;;;;;1.24;85.53;99553.23;124185;1146;22700;-63
2020/12/24 04:07:51;;;;;;;20.80;11.10;;;;;;;1.22;85.88;99558.80;124215;1148;24019;-63
2020/12/24 04:10:18;;;;;;;20.53;11.07;;;;;;;1.23;85.71;99549.73;124166;1148;22712;-63
2020/12/24 04:12:46;;;;;;;18.65;10.15;;;;;;;1.25;86.13;99552.22;124364;1148;23314;-63
2020/12/24 04:15:13;;;;;;;20.57;11.23;;;;;;;1.26;86.01;99561.92;124227;1147;22685;-63
2020/12/24 04:17:41;;;;;;;22.13;12.13;;;;;;;1.24;85.56;99556.75;124331;1148;22782;-63
2020/12/24 04:20:08;;;;;;;17.55;11.10;;;;;;;1.25;86.40;99546.84;124235;1148;22707;-63
2020/12/24 04:22:36;;;;;;;22.00;12.03;;;;;;;1.23;85.40;99541.67;124298;1147;22699;-64
2020/12/24 04:25:03;;;;;;;37.95;17.50;;;;;;;1.22;85.97;99541.87;124242;1145;23526;-64
2020/12/24 04:27:37;;;;;;;35.23;17.63;;;;;;;1.19;85.64;99539.58;119989;1148;23068;-69
2020/12/24 04:30:05;;;;;;;64.10;23.00;;;;;;;1.18;86.40;99538.75;119911;1148;22931;-68
2020/12/24 04:32:33;;;;;;;80.67;28.70;;;;;;;1.18;85.69;99540.59;124331;1148;23584;-69
2020/12/24 04:35:01;;;;;;;44.00;21.70;;;;;;;1.16;85.96;99542.64;124334;1146;22732;-69
2020/12/24 04:37:28;;;;;;;30.13;16.77;;;;;;;1.14;86.25;99544.72;124385;1148;22708;-69
2020/12/24 04:39:56;;;;;;;32.30;18.70;;;;;;;1.14;85.93;99545.55;124281;1146;22695;-69
2020/12/24 04:42:23;;;;;;;34.57;19.47;;;;;;;1.16;86.47;99548.01;124259;1148;22712;-69
2020/12/24 04:44:51;;;;;;;38.47;20.70;;;;;;;1.14;85.52;99542.04;124266;1146;22681;-69
2020/12/24 04:47:18;;;;;;;30.40;16.03;;;;;;;1.15;86.43;99541.02;124120;1148;22681;-69
2020/12/24 04:49:46;;;;;;;30.25;16.65;;;;;;;1.14;86.52;99533.98;124422;1146;22640;-69
2020/12/24 04:52:14;;;;;;;28.15;16.70;;;;;;;1.14;86.41;99528.63;124088;1148;22718;-69
2020/12/24 04:54:42;;;;;;;24.70;13.60;;;;;;;1.13;86.45;99537.70;124419;1146;22787;-69
2020/12/24 04:57:10;;;;;;;34.90;16.50;;;;;;;1.12;85.40;99539.55;124303;1146;22677;-63
2020/12/24 04:59:37;;;;;;;28.10;15.03;;;;;;;1.13;86.47;99537.70;124375;1146;22696;-63
2020/12/24 05:02:05;;;;;;;24.27;12.40;;;;;;;1.13;85.49;99527.80;124035;1148;22751;-63
2020/12/24 05:04:33;;;;;;;24.80;13.30;;;;;;;1.13;85.85;99538.53;124343;1146;22691;-63
2020/12/24 05:07:03;;;;;;;21.20;11.20;;;;;;;1.15;85.60;99543.70;124240;1148;23711;-63
2020/12/24 05:09:31;;;;;;;22.83;11.57;;;;;;;1.15;86.89;99536.48;124392;1148;23362;-63
2020/12/24 05:11:58;;;;;;;23.40;12.75;;;;;;;1.16;85.63;99542.64;124160;1148;23586;-63
2020/12/24 05:14:27;;;;;;;27.60;14.67;;;;;;;1.15;86.18;99539.16;124492;1148;22809;-63
2020/12/24 05:17:07;;;;;;;29.95;16.50;;;;;;;1.16;86.02;99539.96;124033;1148;22723;-63
2020/12/24 05:19:36;;;;;;;28.10;14.10;;;;;;;1.16;86.70;99539.96;124374;1148;22691;-63
2020/12/24 05:22:20;;;;;;;24.50;12.63;;;;;;;1.19;86.84;99540.41;124187;1146;24638;-64
2020/12/24 05:24:47;;;;;;;21.80;10.40;;;;;;;1.18;85.83;99538.75;124371;1146;23608;-63
2020/12/24 05:27:16;;;;;;;23.35;11.85;;;;;;;1.19;86.69;99542.25;120337;1148;22976;-63
2020/12/24 05:29:44;;;;;;;22.67;11.87;;;;;;;1.20;86.54;99533.19;124169;1148;23614;-63
2020/12/24 05:32:12;;;;;;;25.80;13.85;;;;;;;1.23;86.36;99543.53;124190;1148;22670;-64
2020/12/24 05:34:39;;;;;;;26.80;12.60;;;;;;;1.24;86.25;99539.82;124324;1147;23517;-63
2020/12/24 05:37:17;;;;;;;24.80;12.65;;;;;;;1.24;86.07;99546.02;124147;1148;22709;-63
2020/12/24 05:39:47;;;;;;;30.55;13.10;;;;;;;1.24;86.68;99551.39;124282;1145;22685;-63
2020/12/24 05:42:15;;;;;;;31.23;14.10;;;;;;;1.24;86.49;99548.70;124320;1149;22714;-63
2020/12/24 05:44:42;;;;;;;27.17;12.87;;;;;;;1.23;86.24;99552.41;124176;1145;23513;-64
2020/12/24 05:47:10;;;;;;;21.77;12.53;;;;;;;1.24;85.95;99555.92;124161;1148;22686;-63
2020/12/24 05:49:37;;;;;;;27.17;12.90;;;;;;;1.26;86.00;99561.92;124310;1145;22739;-63
2020/12/24 05:52:05;;;;;;;28.90;14.03;;;;;;;1.26;85.62;99559.25;124514;1146;23606;-63
2020/12/24 05:54:38;;;;;;;29.50;12.77;;;;;;;1.26;86.07;99562.76;124472;1146;22683;-64
2020/12/24 05:57:05;;;;;;;26.50;14.15;;;;;;;1.27;86.17;99555.53;124553;1147;23265;-64
2020/12/24 05:59:33;;;;;;;27.07;13.33;;;;;;;1.27;86.00;99551.00;124330;1146;22745;-64
2020/12/24 06:02:13;;;;;;;26.00;13.50;;;;;;;1.28;86.47;99541.09;124517;1146;22725;-63
2020/12/24 06:04:46;;;;;;;24.70;12.10;;;;;;;1.27;85.62;99529.53;124259;1146;22667;-64
2020/12/24 06:07:14;;;;;;;25.15;12.50;;;;;;;1.25;86.55;99520.84;124492;1146;22682;-63
2020/12/24 06:10:03;;;;;;;22.97;11.57;;;;;;;1.26;86.24;99527.87;124420;1146;22671;-64
2020/12/24 06:12:31;;;;;;;20.10;10.67;;;;;;;1.27;85.93;99521.48;124375;1147;23350;-64
2020/12/24 06:15:00;;;;;;;24.05;12.20;;;;;;;1.30;85.53;99518.38;124313;1146;22772;-64
2020/12/24 06:17:28;;;;;;;36.87;19.67;;;;;;;1.29;86.06;99522.11;124549;1147;22769;-64
2020/12/24 06:19:56;;;;;;;31.00;15.65;;;;;;;1.30;86.75;99523.73;124346;1146;22779;-63
2020/12/24 06:22:24;;;;;;;24.10;12.43;;;;;;;1.31;85.92;99530.77;124532;1145;22817;-63
2020/12/24 06:24:58;;;;;;;26.50;14.20;;;;;;;1.24;86.12;99512.98;124432;1147;23560;-63
2020/12/24 06:27:31;;;;;;;28.13;13.97;;;;;;;1.34;86.57;99534.91;124437;1146;22676;-63
2020/12/24 06:30:02;;;;;;;25.97;13.00;;;;;;;1.33;86.43;99525.20;124362;1146;22682;-63
2020/12/24 06:32:31;;;;;;;22.97;11.27;;;;;;;1.33;86.48;99523.34;124424;1146;23281;-63
2020/12/24 06:34:58;;;;;;;23.53;12.03;;;;;;;1.33;85.75;99509.10;124366;1146;22814;-63
2020/12/24 06:37:26;;;;;;;76.40;28.55;;;;;;;1.34;86.29;99510.76;124386;1146;22679;-62
2020/12/24 06:39:53;;;;;;;50.25;19.20;;;;;;;1.32;86.37;99505.59;124370;1146;23488;-63
2020/12/24 06:42:39;;;;;;;44.17;21.80;;;;;;;1.29;85.94;99499.81;124526;1146;22696;-62
2020/12/24 06:45:10;;;;;;;41.70;22.05;;;;;;;1.25;86.40;99506.59;124304;1147;22696;-62
2020/12/24 06:47:37;;;;;;;28.17;15.30;;;;;;;1.24;85.42;99510.30;124522;1147;23632;-62
2020/12/24 06:50:37;;;;;;;26.43;14.63;;;;;;;1.23;86.04;99512.16;124502;1147;22693;-62
2020/12/24 06:53:23;;;;;;;21.45;11.80;;;;;;;1.22;86.12;99515.86;124382;1146;22676;-62
2020/12/24 06:56:16;;;;;;;27.13;14.23;;;;;;;1.22;86.64;99509.67;124332;1146;22776;-61
2020/12/24 06:58:43;;;;;;;23.90;12.43;;;;;;;1.21;85.70;99503.47;124498;1146;22763;-62
2020/12/24 07:01:21;;;;;;;30.80;17.75;;;;;;;1.19;86.69;99502.00;124324;1146;22740;-62
2020/12/24 07:03:49;;;;;;;26.65;14.75;;;;;;;1.17;85.57;99507.56;124429;1146;22720;-62
2020/12/24 07:06:41;;;;;;;26.70;14.15;;;;;;;1.15;85.98;99498.91;124343;1145;22668;-63
2020/12/24 07:09:32;;;;;;;24.43;13.50;;;;;;;1.14;86.82;99494.57;124498;1146;23298;-62
2020/12/24 07:12:00;;;;;;;21.15;11.85;;;;;;;1.14;86.48;99499.11;124368;1146;22716;-62
2020/12/24 07:14:28;;;;;;;23.45;12.40;;;;;;;1.12;86.67;99510.03;124444;1146;22690;-63
2020/12/24 07:16:57;;;;;;;22.97;12.27;;;;;;;1.14;86.28;99510.67;124217;1146;22683;-62
2020/12/24 07:19:24;;;;;;;21.90;12.30;;;;;;;1.14;86.44;99501.79;124548;1145;22872;-62
2020/12/24 07:21:53;;;;;;;21.20;11.60;;;;;;;1.14;86.22;99499.94;124360;1146;22724;-62
2020/12/24 07:24:27;;;;;;;25.23;12.07;;;;;;;1.17;86.98;99499.52;124540;1146;22703;-63
2020/12/24 07:26:56;;;;;;;26.93;12.77;;;;;;;1.17;86.90;99486.10;124409;1146;22671;-62
2020/12/24 07:29:25;;;;;;;44.00;20.30;;;;;;;1.21;86.42;99486.54;124525;1146;22695;-62
2020/12/24 07:31:52;;;;;;;51.07;23.20;;;;;;;1.19;87.13;99489.42;124376;1146;22715;-62
2020/12/24 07:34:26;;;;;;;40.65;21.35;;;;;;;1.22;86.51;99498.94;124471;1146;23300;-62
2020/12/24 07:36:54;;;;;;;26.35;14.10;;;;;;;1.24;86.58;99488.83;121119;1146;22934;-61
2020/12/24 07:39:21;;;;;;;23.70;12.27;;;;;;;1.26;86.99;99502.89;119828;1147;22932;-62
2020/12/24 07:41:49;;;;;;;26.20;13.95;;;;;;;1.26;87.06;99505.57;119863;1147;22913;-61
2020/12/24 07:44:17;;;;;;;25.10;14.60;;;;;;;1.24;86.79;99496.88;124358;1145;23084;-62
2020/12/24 07:46:46;;;;;;;28.63;14.47;;;;;;;1.24;86.50;99500.39;124532;1146;23442;-62
2020/12/24 07:49:14;;;;;;;26.40;16.05;;;;;;;1.24;86.60;99489.66;124421;1146;22694;-62
2020/12/24 07:51:41;;;;;;;19.97;10.80;;;;;;;1.25;86.23;99488.64;124491;1146;22677;-63
2020/12/24 07:54:12;;;;;;;21.00;12.15;;;;;;;1.27;86.01;99493.81;124323;1146;24952;-62
2020/12/24 07:56:42;;;;;;;21.20;11.83;;;;;;;1.29;86.65;99497.13;124401;1146;22712;-62
2020/12/24 07:59:10;;;;;;;19.30;10.50;;;;;;;1.31;87.15;99492.36;124331;1146;22707;-62
2020/12/24 08:01:37;;;;;;;22.40;12.30;;;;;;;1.22;86.08;99474.78;124482;1146;23463;-62
2020/12/24 08:04:05;;;;;;;17.45;9.50;;;;;;;1.35;87.19;99497.14;124369;1146;22696;-62
2020/12/24 08:06:33;;;;;;;19.50;11.37;;;;;;;1.35;87.30;99493.62;124394;1146;22697;-69
2020/12/24 08:09:16;;;;;;;17.85;10.30;;;;;;;1.35;86.62;99502.52;124332;1145;22680;-68
2020/12/24 08:12:02;;;;;;;18.50;9.50;;;;;;;1.33;86.51;99496.51;124444;1146;22791;-69
2020/12/24 08:14:30;;;;;;;16.70;8.87;;;;;;;1.32;86.68;99502.91;124409;1146;22777;-68
2020/12/24 08:17:28;;;;;;;20.75;9.80;;;;;;;1.33;86.65;99509.10;124424;1146;22676;-68
2020/12/24 08:20:06;;;;;;;18.47;9.30;;;;;;;1.33;86.43;99515.30;124266;1146;23309;-68
2020/12/24 08:22:51;;;;;;;15.17;8.20;;;;;;;1.33;86.60;99512.61;124491;1145;23685;-69
2020/12/24 08:25:18;;;;;;;17.55;9.40;;;;;;;1.32;86.94;99520.86;124367;1146;22666;-68
2020/12/24 08:27:46;;;;;;;19.85;9.90;;;;;;;1.32;86.54;99512.81;124470;1146;22670;-69
2020/12/24 08:30:14;;;;;;;18.17;9.57;;;;;;;1.30;86.56;99506.84;124352;1146;22687;-68
2020/12/24 08:32:42;;;;;;;14.70;8.50;;;;;;;1.27;86.23;99501.86;124485;1146;22702;-68
2020/12/24 08:35:14;;;;;;;16.47;7.87;;;;;;;1.22;85.49;99494.39;124346;1146;23382;-67
2020/12/24 08:37:41;;;;;;;13.73;7.47;;;;;;;1.18;85.79;99485.08;124439;1146;22690;-68
2020/12/24 08:40:25;;;;;;;15.60;8.03;;;;;;;1.15;86.14;99488.18;124391;1146;23638;-68
2020/12/24 08:42:58;;;;;;;15.67;8.80;;;;;;;1.11;86.26;99481.55;124448;1146;22787;-68
2020/12/24 08:45:26;;;;;;;14.63;7.30;;;;;;;1.08;86.55;99478.42;124319;1146;23626;-68
2020/12/24 08:47:54;;;;;;;14.33;7.33;;;;;;;1.07;85.59;99472.23;124450;1146;22718;-68
2020/12/24 08:50:37;;;;;;;12.37;7.13;;;;;;;1.06;86.35;99470.56;124329;1146;23252;-69
2020/12/24 08:53:07;;;;;;;13.00;7.80;;;;;;;1.03;85.83;99458.38;124492;1146;22635;-69
2020/12/24 08:55:35;;;;;;;13.83;7.47;;;;;;;1.02;86.68;99462.08;124369;1145;22766;-69
2020/12/24 08:58:02;;;;;;;16.47;8.17;;;;;;;0.99;86.17;99457.13;124396;1146;22746;-68
2020/12/24 09:00:30;;;;;;;15.40;8.70;;;;;;;0.98;86.86;99447.43;124306;1146;22656;-69
2020/12/24 09:02:57;;;;;;;16.65;8.25;;;;;;;1.01;86.25;99440.84;124454;1146;23530;-68
2020/12/24 09:05:25;;;;;;;13.10;7.20;;;;;;;1.04;85.65;99445.79;124407;1146;23547;-68
2020/12/24 09:07:53;;;;;;;12.10;6.60;;;;;;;1.06;85.94;99444.56;124413;1146;22680;-68
2020/12/24 09:10:25;;;;;;;15.85;8.35;;;;;;;1.09;86.70;99431.78;124487;1146;22683;-69
2020/12/24 09:13:02;;;;;;;15.07;8.17;;;;;;;1.12;85.75;99450.18;124297;1146;22811;-68
2020/12/24 09:15:30;;;;;;;12.80;6.57;;;;;;;1.14;86.79;99437.39;124431;1146;22667;-68
2020/12/24 09:17:59;;;;;;;12.50;7.00;;;;;;;1.15;86.15;99441.73;124409;1145;23576;-68
2020/12/24 09:20:31;;;;;;;14.57;8.57;;;;;;;1.16;86.10;99440.68;124473;1145;22667;-68
2020/12/24 09:23:01;;;;;;;13.00;7.70;;;;;;;1.16;85.95;99441.52;124339;1146;22720;-68
2020/12/24 09:25:31;;;;;;;13.95;8.10;;;;;;;1.16;86.01;99440.68;124589;1146;22760;-68
2020/12/24 09:27:59;;;;;;;14.07;8.30;;;;;;;1.17;86.20;99434.29;124340;1146;22679;-69
2020/12/24 09:30:26;;;;;;;18.30;11.13;;;;;;;1.17;86.20;99418.19;124437;1146;22683;-68
2020/12/24 09:32:58;;;;;;;13.10;7.17;;;;;;;1.17;86.30;99415.51;124214;1146;23249;-68
2020/12/24 09:35:26;;;;;;;14.03;6.80;;;;;;;1.16;85.50;99416.53;124608;1145;22649;-68
2020/12/24 09:37:54;;;;;;;15.17;7.03;;;;;;;1.16;85.91;99408.48;124480;1146;22688;-69
2020/12/24 09:40:22;;;;;;;10.80;6.30;;;;;;;1.16;85.71;99408.48;124448;1146;22706;-68
2020/12/24 09:42:49;;;;;;;9.97;6.23;;;;;;;1.16;85.95;99411.99;124419;1146;23328;-69
2020/12/24 09:45:17;;;;;;;10.50;6.37;;;;;;;1.17;85.83;99404.77;124481;1146;22674;-68
2020/12/24 09:47:45;;;;;;;12.07;7.60;;;;;;;1.17;85.61;99408.28;124361;1145;22688;-68
2020/12/24 09:50:12;;;;;;;11.50;8.07;;;;;;;1.18;85.23;99398.38;124472;1145;23832;-68
2020/12/24 09:52:40;;;;;;;12.87;7.17;;;;;;;1.18;85.74;99388.48;124259;1146;22695;-69
2020/12/24 09:55:07;;;;;;;17.40;7.83;;;;;;;1.18;85.78;99383.11;124465;1146;22694;-68
2020/12/24 09:57:35;;;;;;;14.13;9.00;;;;;;;1.21;85.46;99382.72;124312;1146;23293;-68
2020/12/24 10:00:07;;;;;;;12.60;7.87;;;;;;;1.22;85.53;99381.69;124410;1146;22682;-68
2020/12/24 10:02:36;;;;;;;10.37;7.17;;;;;;;1.25;85.92;99375.09;124348;1146;22676;-68
2020/12/24 10:05:04;;;;;;;14.13;7.60;;;;;;;1.27;86.21;99367.67;124416;1146;22711;-68
2020/12/24 10:07:35;;;;;;;10.55;6.55;;;;;;;1.28;85.76;99363.97;119853;1147;22890;-68
2020/12/24 10:10:03;;;;;;;13.13;7.83;;;;;;;1.30;85.85;99359.23;119801;1147;22917;-68
2020/12/24 10:12:30;;;;;;;19.33;10.57;;;;;;;1.33;86.19;99356.11;124497;1146;22684;-68
2020/12/24 10:14:58;;;;;;;13.05;8.50;;;;;;;1.34;85.51;99352.41;124216;1146;22696;-68
2020/12/24 10:17:25;;;;;;;11.35;7.20;;;;;;;1.33;85.52;99353.43;124469;1146;22697;-68
2020/12/24 10:19:53;;;;;;;15.07;8.83;;;;;;;1.33;85.89;99348.06;124372;1146;22652;-68
2020/12/24 10:22:22;;;;;;;16.60;9.00;;;;;;;1.32;85.78;99354.45;124427;1146;22719;-68
2020/12/24 10:24:52;;;;;;;18.70;9.35;;;;;;;1.31;85.75;99342.89;124404;1146;22680;-69
2020/12/24 10:27:19;;;;;;;14.30;8.65;;;;;;;1.31;85.80;99342.06;124454;1146;22680;-68
2020/12/24 10:29:47;;;;;;;15.67;7.73;;;;;;;1.30;85.68;99337.76;124372;1146;22697;-68
2020/12/24 10:32:14;;;;;;;16.57;7.97;;;;;;;1.28;85.99;99335.27;124528;1146;22688;-68
2020/12/24 10:34:42;;;;;;;12.35;7.50;;;;;;;1.31;85.67;99334.02;124356;1146;22694;-68
2020/12/24 10:37:10;;;;;;;14.30;7.73;;;;;;;1.30;85.85;99321.66;124585;1146;22683;-68
2020/12/24 10:39:37;;;;;;;11.77;7.37;;;;;;;1.30;86.45;99322.45;124330;1146;22665;-68
2020/12/24 10:42:04;;;;;;;24.10;11.33;;;;;;;1.32;86.74;99328.45;124467;1146;22687;-69
2020/12/24 10:44:32;;;;;;;21.80;11.10;;;;;;;1.29;85.17;99320.00;124372;1146;22718;-68
2020/12/24 10:46:59;;;;;;;16.40;9.00;;;;;;;1.25;85.91;99316.89;124453;1146;22687;-68
2020/12/24 10:49:27;;;;;;;20.03;10.93;;;;;;;1.26;85.55;99315.03;124476;1145;22716;-68
2020/12/24 10:51:55;;;;;;;20.97;11.07;;;;;;;1.23;86.50;99310.89;124424;1146;22673;-68
2020/12/24 10:54:22;;;;;;;21.70;11.67;;;;;;;1.20;86.46;99305.09;124511;1146;22659;-68
2020/12/24 10:56:50;;;;;;;17.10;9.10;;;;;;;1.21;86.19;99307.58;124433;1146;22728;-68
2020/12/24 10:59:17;;;;;;;14.90;7.90;;;;;;;1.18;86.05;99304.47;124442;1146;22688;-68
2020/12/24 11:01:47;;;;;;;12.65;7.30;;;;;;;1.15;85.33;99300.36;124452;1145;22767;-77
2020/12/24 11:04:15;;;;;;;15.40;9.25;;;;;;;1.15;86.28;99294.16;124428;1146;22729;-68
2020/12/24 11:06:44;;;;;;;13.27;7.37;;;;;;;1.15;86.43;99294.16;124391;1146;22648;-62
2020/12/24 11:09:12;;;;;;;15.05;8.00;;;;;;;1.15;86.01;99288.80;124441;1145;22679;-63
2020/12/24 11:11:39;;;;;;;18.25;9.55;;;;;;;1.16;85.89;99287.73;124282;1146;22677;-62
2020/12/24 11:14:07;;;;;;;17.07;9.10;;;;;;;1.14;86.14;99284.46;124578;1146;22681;-62
2020/12/24 11:16:34;;;;;;;13.07;7.97;;;;;;;1.12;85.67;99279.30;124340;1146;22646;-62
2020/12/24 11:19:01;;;;;;;14.57;8.27;;;;;;;1.10;86.46;99278.67;124477;1146;22671;-62
2020/12/24 11:21:30;;;;;;;13.87;8.30;;;;;;;1.11;86.30;99276.81;124319;1146;22693;-62
2020/12/24 11:24:04;;;;;;;16.33;8.90;;;;;;;1.11;86.59;99274.12;124537;1145;22775;-62
2020/12/24 11:26:35;;;;;;;22.20;9.93;;;;;;;1.11;85.93;99271.45;124298;1146;23370;-62
2020/12/24 11:29:03;;;;;;;28.77;14.10;;;;;;;1.13;86.46;99270.22;124470;1146;22671;-62
2020/12/24 11:31:32;;;;;;;18.30;9.40;;;;;;;1.13;86.06;99259.48;124364;1146;23492;-62